Time;durP1;ratioP1;P1;durP2;ratioP2;P2;SDS_P1;SDS_P2;PMS_P1;PMS_P2;Temp;Humidity;BMP_temperature;BMP_pressure;BME280_temperature;BME280_humidity;BME280_pressure;Samples;Min_cycle;Max_cycle;Signal;HPM_P1;HPM_P2
2023/08/22 00:00:37;;;;;;;7.68;4.53;;;;;;;17.96;98.36;102064.97;10459566;28;20029;-70
2023/08/22 00:05:39;;;;;;;9.32;4.63;;;;;;;17.91;99.90;102053.00;10458144;28;20057;-70
2023/08/22 00:10:39;;;;;;;8.35;4.82;;;;;;;17.81;99.72;102048.84;10457779;28;20127;-70
2023/08/22 00:15:40;;;;;;;5.68;4.55;;;;;;;17.77;100.00;102041.25;10440596;28;20543;-70
2023/08/22 00:20:41;;;;;;;6.53;4.20;;;;;;;17.75;100.00;102035.97;10456343;28;20109;-70
2023/08/22 00:25:44;;;;;;;8.77;5.88;;;;;;;17.72;100.00;102036.41;10457025;28;20033;-71
2023/08/22 00:30:45;;;;;;;6.55;5.18;;;;;;;17.72;100.00;102041.03;10457707;28;20115;-70
2023/08/22 00:35:46;;;;;;;3.72;3.47;;;;;;;17.68;100.00;102021.47;10455495;28;20033;-70
2023/08/22 00:40:46;;;;;;;6.80;4.47;;;;;;;17.56;99.77;102026.78;10456395;28;20040;-70
2023/08/22 00:45:47;;;;;;;5.60;3.83;;;;;;;17.47;99.37;102027.22;10455697;28;20090;-70
2023/08/22 00:50:48;;;;;;;10.70;4.30;;;;;;;17.38;99.87;102011.03;10455778;28;20040;-70
2023/08/22 00:55:48;;;;;;;6.68;3.90;;;;;;;17.35;99.86;102002.41;10438803;28;20039;-70
2023/08/22 01:00:49;;;;;;;3.22;2.92;;;;;;;17.24;99.61;102001.19;10438195;28;20465;-70
2023/08/22 01:05:52;;;;;;;6.30;3.38;;;;;;;17.21;99.80;102012.56;10455818;28;20398;-70
2023/08/22 01:10:54;;;;;;;6.22;3.72;;;;;;;17.18;99.50;102008.34;10454416;28;20029;-70
2023/08/22 01:15:54;;;;;;;3.55;3.03;;;;;;;17.14;99.47;102001.63;10455277;28;20032;-70
2023/08/22 01:21:04;;;;;;;4.53;3.75;;;;;;;17.04;99.20;102020.41;10455042;28;20032;-70
2023/08/22 01:26:05;;;;;;;8.13;3.45;;;;;;;16.99;99.44;102014.72;10438225;28;20428;-70
2023/08/22 01:31:16;;;;;;;6.05;3.42;;;;;;;17.04;100.00;102028.59;10454444;28;20377;-70
2023/08/22 01:36:17;;;;;;;5.05;2.80;;;;;;;17.10;100.00;102022.28;10437352;28;20051;-70
2023/08/22 01:41:18;;;;;;;6.63;3.22;;;;;;;17.10;100.00;102011.34;10470034;28;20124;-70
2023/08/22 01:46:19;;;;;;;6.53;3.38;;;;;;;17.18;100.00;102007.50;10454712;28;20124;-70
2023/08/22 01:51:20;;;;;;;7.43;3.38;;;;;;;17.25;100.00;102010.22;10454960;28;20049;-70
2023/08/22 01:56:20;;;;;;;3.42;3.13;;;;;;;17.21;99.97;102009.81;10455058;28;20120;-70
2023/08/22 02:01:22;;;;;;;7.60;3.55;;;;;;;17.12;99.66;102002.91;10454872;28;20041;-70
2023/08/22 02:06:23;;;;;;;7.25;2.67;;;;;;;17.02;100.00;102000.59;10453357;28;20106;-70
2023/08/22 02:11:23;;;;;;;4.93;2.85;;;;;;;17.01;100.00;101992.63;10451928;28;20439;-70
2023/08/22 02:16:24;;;;;;;8.98;3.83;;;;;;;16.88;100.00;101985.25;10452019;28;20385;-70
2023/08/22 02:21:25;;;;;;;5.82;2.63;;;;;;;16.85;100.00;101983.81;10453971;28;20033;-70
2023/08/22 02:26:26;;;;;;;7.63;3.28;;;;;;;16.74;100.00;101985.25;10451739;28;20085;-70
2023/08/22 02:31:26;;;;;;;7.32;3.22;;;;;;;16.69;100.00;101982.31;10451238;28;20037;-70
2023/08/22 02:36:27;;;;;;;5.60;3.13;;;;;;;16.68;100.00;101977.03;10468474;28;20120;-70
2023/08/22 02:41:27;;;;;;;2.92;2.63;;;;;;;16.65;100.00;101975.56;10453763;28;20040;-70
2023/08/22 02:46:28;;;;;;;6.53;3.95;;;;;;;16.62;100.00;101978.72;10455635;28;20187;-70
2023/08/22 02:51:29;;;;;;;5.75;3.65;;;;;;;16.51;100.00;101977.47;10451538;28;20028;-70
2023/08/22 02:56:29;;;;;;;5.72;3.65;;;;;;;16.47;100.00;101986.31;10450748;28;20033;-70
2023/08/22 03:01:30;;;;;;;9.90;4.95;;;;;;;16.41;100.00;101984.44;10450754;28;20041;-70
2023/08/22 03:06:31;;;;;;;4.90;4.50;;;;;;;16.39;100.00;101976.41;10433341;28;20315;-70
2023/08/22 03:11:34;;;;;;;8.85;4.90;;;;;;;16.39;100.00;101975.59;10449308;28;20041;-70
2023/08/22 03:16:35;;;;;;;6.30;4.80;;;;;;;16.35;100.00;101974.31;10450874;28;20090;-70
2023/08/22 03:21:36;;;;;;;5.50;4.18;;;;;;;16.37;100.00;101973.06;10449681;28;20036;-70
2023/08/22 03:26:36;;;;;;;7.70;4.70;;;;;;;16.35;100.00;101977.91;10454237;28;20120;-70
2023/08/22 03:31:37;;;;;;;12.07;3.85;;;;;;;16.30;100.00;101971.38;10459459;28;20104;-70
2023/08/22 03:36:37;;;;;;;10.85;5.65;;;;;;;16.33;100.00;101966.31;10458143;28;20033;-70
2023/08/22 03:41:38;;;;;;;9.27;4.63;;;;;;;16.39;100.00;101954.53;10457548;28;20052;-70
2023/08/22 03:46:38;;;;;;;5.25;4.75;;;;;;;16.43;100.00;101955.84;10457530;28;20029;-70
2023/08/22 03:51:39;;;;;;;6.45;5.22;;;;;;;16.37;100.00;101945.75;10457297;28;20037;-70
2023/08/22 03:56:39;;;;;;;15.20;4.68;;;;;;;16.34;100.00;101946.16;10457545;28;20190;-70
2023/08/22 04:01:40;;;;;;;13.82;5.55;;;;;;;16.36;100.00;101948.66;10457830;28;20482;-70
2023/08/22 04:06:41;;;;;;;13.68;5.78;;;;;;;16.36;100.00;101952.22;10456589;28;20053;-70
2023/08/22 04:11:42;;;;;;;9.32;5.70;;;;;;;16.38;100.00;101952.03;10455962;28;20033;-70
2023/08/22 04:16:42;;;;;;;15.45;5.95;;;;;;;16.41;100.00;101957.09;10439110;28;20524;-70
2023/08/22 04:21:43;;;;;;;14.52;6.82;;;;;;;16.41;100.00;101960.66;10457641;28;20033;-70
2023/08/22 04:26:43;;;;;;;21.40;6.93;;;;;;;16.43;100.00;101963.16;10455895;28;20060;-70
2023/08/22 04:31:44;;;;;;;10.65;6.72;;;;;;;16.52;100.00;101968.22;10455781;28;20037;-70
2023/08/22 04:36:44;;;;;;;17.08;8.02;;;;;;;16.54;100.00;101961.72;10456411;28;20052;-69
2023/08/22 04:41:44;;;;;;;10.40;8.38;;;;;;;16.62;100.00;101948.63;10455795;28;20037;-70
2023/08/22 04:46:45;;;;;;;9.32;7.47;;;;;;;16.73;100.00;101949.91;10389488;28;20154;-73
2023/08/22 04:51:45;;;;;;;33.65;10.10;;;;;;;16.82;100.00;101940.47;10456234;28;20124;-74
2023/08/22 04:56:46;;;;;;;12.07;9.77;;;;;;;16.92;100.00;101945.47;10438458;28;20091;-73
2023/08/22 05:01:46;;;;;;;13.40;10.23;;;;;;;17.04;100.00;101940.16;10454047;28;20088;-67
2023/08/22 05:06:47;;;;;;;15.15;9.80;;;;;;;17.05;100.00;101939.13;10454346;28;20110;-66
2023/08/22 05:11:48;;;;;;;13.98;10.35;;;;;;;17.14;100.00;101935.94;10455088;28;20086;-71
2023/08/22 05:16:51;;;;;;;22.08;9.90;;;;;;;17.33;100.00;101942.41;10456940;28;20041;-70
2023/08/22 05:21:51;;;;;;;17.40;10.57;;;;;;;17.55;100.00;101951.16;10457398;28;20035;-70
2023/08/22 05:26:51;;;;;;;15.75;10.50;;;;;;;17.79;100.00;101954.22;10453653;28;20044;-70
2023/08/22 05:31:53;;;;;;;12.68;9.13;;;;;;;17.94;100.00;101953.91;10454867;28;20095;-70
2023/08/22 05:36:53;;;;;;;18.98;10.68;;;;;;;18.07;100.00;101970.25;10454000;28;20021;-70
2023/08/22 05:41:53;;;;;;;17.30;11.63;;;;;;;18.31;100.00;101957.63;10454425;28;20060;-70
2023/08/22 05:46:54;;;;;;;19.15;12.15;;;;;;;18.91;100.00;101963.44;10436279;28;20036;-70
2023/08/22 05:52:02;;;;;;;11.23;9.23;;;;;;;20.44;100.00;101961.38;10453324;28;20063;-70
2023/08/22 05:57:02;;;;;;;11.02;9.93;;;;;;;21.77;100.00;101967.94;10436616;28;20460;-70
2023/08/22 06:02:03;;;;;;;14.38;9.63;;;;;;;22.70;100.00;101967.63;10453705;28;20091;-70
2023/08/22 06:07:03;;;;;;;12.07;7.80;;;;;;;22.19;100.00;101973.16;10453305;28;20118;-70
2023/08/22 06:12:04;;;;;;;11.40;10.13;;;;;;;20.99;100.00;101972.06;10451695;28;20119;-70
2023/08/22 06:17:05;;;;;;;16.88;9.18;;;;;;;20.06;100.00;101976.38;10452142;28;20041;-70
2023/08/22 06:22:05;;;;;;;18.23;10.38;;;;;;;19.72;100.00;101973.28;10452849;28;20385;-70
2023/08/22 06:27:06;;;;;;;17.20;9.80;;;;;;;20.70;100.00;101968.38;10434469;28;20081;-70
2023/08/22 06:32:06;;;;;;;11.98;8.77;;;;;;;22.08;100.00;101970.41;10434271;28;20458;-70
2023/08/22 06:37:07;;;;;;;18.13;10.63;;;;;;;23.05;100.00;101966.50;10451032;28;20037;-70
2023/08/22 06:42:08;;;;;;;19.15;8.57;;;;;;;23.13;100.00;101966.06;10450381;28;20041;-70
2023/08/22 06:47:09;;;;;;;15.55;8.70;;;;;;;23.61;100.00;101978.25;10450633;28;20459;-70
2023/08/22 06:52:09;;;;;;;16.63;8.68;;;;;;;24.34;100.00;101975.97;10450843;28;20032;-70
2023/08/22 06:57:10;;;;;;;12.20;8.32;;;;;;;24.65;100.00;101979.88;10434245;28;20456;-71
2023/08/22 07:02:10;;;;;;;9.05;7.35;;;;;;;24.61;98.41;101992.59;10450533;28;20131;-70
2023/08/22 07:07:11;;;;;;;10.32;8.00;;;;;;;24.32;99.10;101989.28;10450790;28;20223;-70
2023/08/22 07:12:12;;;;;;;8.13;7.32;;;;;;;23.97;99.22;102003.59;10451504;28;20033;-70
2023/08/22 07:17:13;;;;;;;8.30;7.40;;;;;;;22.77;100.00;102012.47;10452123;28;20057;-70
2023/08/22 07:22:14;;;;;;;11.05;8.05;;;;;;;22.12;100.00;102024.03;10450859;28;20044;-70
2023/08/22 07:27:14;;;;;;;10.68;7.47;;;;;;;21.74;100.00;102028.25;10432954;28;20487;-70
2023/08/22 07:32:15;;;;;;;6.50;5.78;;;;;;;21.82;100.00;102034.22;10433394;28;20151;-70
2023/08/22 07:37:16;;;;;;;12.60;6.32;;;;;;;22.40;100.00;102029.53;10434121;28;20425;-70
2023/08/22 07:42:16;;;;;;;8.82;5.22;;;;;;;22.69;100.00;102035.00;10433777;28;20029;-70
2023/08/22 07:47:20;;;;;;;21.67;5.03;;;;;;;22.94;100.00;102038.19;10434267;28;20069;-70
2023/08/22 07:52:20;;;;;;;13.30;5.43;;;;;;;23.24;100.00;102036.97;10432949;28;20082;-70
2023/08/22 07:57:21;;;;;;;8.43;4.28;;;;;;;23.15;100.00;102031.03;10433376;28;20043;-70
2023/08/22 08:02:21;;;;;;;4.30;3.60;;;;;;;23.08;100.00;102026.78;10432706;28;20439;-70
2023/08/22 08:07:22;;;;;;;5.65;3.78;;;;;;;23.59;100.00;102027.47;10448242;28;20144;-70
2023/08/22 08:12:23;;;;;;;5.70;3.58;;;;;;;23.80;98.27;102021.13;10451881;28;20106;-70
2023/08/22 08:17:25;;;;;;;8.85;4.18;;;;;;;23.48;97.93;102018.19;10457042;28;20491;-70
2023/08/22 08:22:26;;;;;;;13.70;3.90;;;;;;;23.76;98.04;102030.19;10457321;28;20045;-70
2023/08/22 08:27:26;;;;;;;4.65;4.10;;;;;;;23.88;97.70;102020.66;10456958;28;20037;-70
2023/08/22 08:32:27;;;;;;;9.98;4.90;;;;;;;23.82;96.58;102029.16;10438504;28;20443;-70
2023/08/22 08:37:28;;;;;;;7.72;5.00;;;;;;;23.98;96.17;102008.84;10454696;28;20465;-70
2023/08/22 08:42:28;;;;;;;13.30;5.20;;;;;;;24.06;95.47;102013.09;10456415;28;20524;-70
2023/08/22 08:47:30;;;;;;;4.75;3.63;;;;;;;23.90;95.23;102025.94;10438243;28;20081;-70
2023/08/22 08:52:31;;;;;;;11.52;4.10;;;;;;;24.05;95.03;102034.38;10454787;28;20041;-71
2023/08/22 08:57:32;;;;;;;8.27;4.13;;;;;;;24.09;93.30;102048.53;10453853;28;20056;-71
2023/08/22 09:02:32;;;;;;;7.07;3.13;;;;;;;24.11;91.46;102038.03;10437610;28;20032;-70
2023/08/22 09:07:33;;;;;;;4.32;2.40;;;;;;;23.95;91.97;102039.81;10436702;28;20412;-70
2023/08/22 09:12:34;;;;;;;8.20;2.88;;;;;;;23.95;92.19;102034.28;10452739;28;20032;-70
2023/08/22 09:17:35;;;;;;;6.38;2.30;;;;;;;23.79;91.51;102027.75;10453620;28;20148;-70
2023/08/22 09:22:36;;;;;;;7.00;4.20;;;;;;;23.87;91.37;102037.53;10436414;28;20378;-71
2023/08/22 09:27:37;;;;;;;4.03;3.42;;;;;;;23.84;91.79;102049.94;10454813;28;20032;-70
2023/08/22 09:32:37;;;;;;;4.75;2.90;;;;;;;23.96;89.71;102047.00;10454620;28;20033;-70
2023/08/22 09:37:40;;;;;;;8.45;3.92;;;;;;;24.74;87.44;102055.00;10453244;28;20069;-70
2023/08/22 09:42:41;;;;;;;2.85;2.67;;;;;;;24.91;87.22;102052.06;10453036;28;20040;-70
2023/08/22 09:47:43;;;;;;;8.70;4.03;;;;;;;24.78;87.24;102056.13;10454026;28;20033;-71
2023/08/22 09:52:44;;;;;;;2.92;2.70;;;;;;;24.48;86.31;102048.41;10452784;28;20025;-71
2023/08/22 09:57:44;;;;;;;3.03;2.67;;;;;;;24.28;87.11;102041.56;10452534;28;20102;-71
2023/08/22 10:02:45;;;;;;;9.27;3.22;;;;;;;24.20;87.50;102039.25;10453665;28;20123;-71
2023/08/22 10:07:46;;;;;;;4.22;2.67;;;;;;;24.93;85.54;102047.94;10451782;28;20104;-70
2023/08/22 10:12:47;;;;;;;2.95;2.60;;;;;;;25.19;84.57;102048.97;10451085;28;20065;-71
2023/08/22 10:17:47;;;;;;;3.83;2.47;;;;;;;25.15;83.71;102052.56;10452715;28;20420;-71
2023/08/22 10:22:48;;;;;;;28.95;3.00;;;;;;;25.04;84.00;102062.69;10435465;28;20104;-71
2023/08/22 10:27:49;;;;;;;26.17;7.63;;;;;;;24.70;85.08;102057.47;10435837;28;20040;-71
2023/08/22 10:33:05;;;;;;;7.65;2.95;;;;;;;24.56;85.14;102070.06;10453548;28;20124;-70
2023/08/22 10:38:09;;;;;;;;;;;;;;;24.52;85.48;102055.91;10452089;28;20418;-71
2023/08/22 10:43:13;;;;;;;8.88;3.08;;;;;;;24.55;85.53;102062.88;10450795;28;19936;-71
2023/08/22 10:48:15;;;;;;;2.10;1.88;;;;;;;24.20;85.39;102058.63;10450477;28;20057;-70
2023/08/22 10:53:18;;;;;;;6.00;2.78;;;;;;;24.20;85.24;102061.41;10450785;28;20117;-71
2023/08/22 10:58:39;;;;;;;12.25;2.08;;;;;;;24.49;83.47;102061.16;10452548;28;20048;-71
2023/08/22 11:03:40;;;;;;;13.10;3.55;;;;;;;24.73;83.70;102051.41;10450716;28;20111;-71
2023/08/22 11:08:44;;;;;;;4.28;3.03;;;;;;;24.85;84.15;102053.13;10449416;28;20102;-71
2023/08/22 11:13:44;;;;;;;3.85;2.65;;;;;;;24.79;84.17;102057.78;10451267;28;20041;-71
2023/08/22 11:18:46;;;;;;;5.05;3.08;;;;;;;24.78;83.83;102067.22;10450956;28;20041;-71
2023/08/22 11:23:47;;;;;;;9.57;2.47;;;;;;;24.96;83.54;102072.34;10449995;28;20091;-71
2023/08/22 11:28:48;;;;;;;2.60;2.25;;;;;;;25.12;81.95;102062.25;10450253;28;20063;-71
2023/08/22 11:33:49;;;;;;;2.80;2.50;;;;;;;25.35;80.17;102071.25;10433377;28;20044;-71
2023/08/22 11:38:59;;;;;;;4.28;2.40;;;;;;;25.59;78.68;102072.50;10451403;28;20501;-70
2023/08/22 11:44:00;;;;;;;2.65;2.22;;;;;;;25.43;78.69;102070.72;10450243;28;20425;-71
2023/08/22 11:49:06;;;;;;;2.03;1.92;;;;;;;25.07;78.39;102056.63;10438209;28;20052;-71
2023/08/22 11:54:10;;;;;;;4.32;2.90;;;;;;;24.90;78.99;102059.56;10458873;28;20037;-71
2023/08/22 11:59:10;;;;;;;9.20;2.25;;;;;;;25.14;79.07;102065.56;10440651;28;20116;-71
2023/08/22 12:04:11;;;;;;;7.20;3.30;;;;;;;25.26;76.27;102065.38;10458403;28;20041;-70
2023/08/22 12:09:11;;;;;;;2.92;2.45;;;;;;;25.43;76.78;102066.03;10457547;28;20103;-71
2023/08/22 12:14:21;;;;;;;2.53;2.33;;;;;;;26.23;76.24;102067.72;10456248;28;20032;-71
2023/08/22 12:19:22;;;;;;;5.20;2.92;;;;;;;28.40;68.58;102069.50;10457589;28;20491;-71
2023/08/22 12:24:26;;;;;;;4.13;3.22;;;;;;;28.84;63.16;102057.41;10455709;28;20032;-71
2023/08/22 12:29:30;;;;;;;5.18;2.80;;;;;;;28.51;64.65;102062.72;10456584;28;20033;-71
2023/08/22 12:34:31;;;;;;;4.43;3.33;;;;;;;28.46;66.07;102053.56;10456291;28;20075;-71
2023/08/22 12:39:31;;;;;;;3.17;2.47;;;;;;;29.87;60.50;102049.63;10438969;28;20037;-71
2023/08/22 12:44:32;;;;;;;1.88;1.77;;;;;;;28.95;53.26;102055.38;10455111;28;20037;-71
2023/08/22 12:49:33;;;;;;;2.45;2.03;;;;;;;28.80;57.94;102052.75;10438766;28;20048;-71
2023/08/22 12:54:36;;;;;;;1.90;1.80;;;;;;;29.74;56.68;102050.34;10455690;28;20033;-71
2023/08/22 12:59:43;;;;;;;1.52;1.42;;;;;;;29.63;53.02;102060.81;10456618;28;20040;-71
2023/08/22 13:04:43;;;;;;;2.53;1.88;;;;;;;29.07;51.75;102052.22;10456895;28;20483;-71
2023/08/22 13:09:44;;;;;;;3.97;1.95;;;;;;;29.72;53.18;102062.94;10455878;28;20076;-71
2023/08/22 13:14:45;;;;;;;8.70;1.98;;;;;;;29.78;52.75;102056.16;10453983;28;20400;-71
2023/08/22 13:19:46;;;;;;;2.75;1.83;;;;;;;29.38;51.69;102056.31;10454219;28;20044;-71
2023/08/22 13:24:46;;;;;;;2.83;2.45;;;;;;;29.16;54.27;102042.06;10455029;28;20082;-71
2023/08/22 13:29:47;;;;;;;1.60;1.42;;;;;;;29.21;52.58;102036.44;10454654;28;20036;-71
2023/08/22 13:34:50;;;;;;;2.15;1.70;;;;;;;29.26;53.09;102039.19;10454219;28;20052;-71
2023/08/22 13:39:50;;;;;;;1.75;1.65;;;;;;;29.14;53.16;102035.97;10454485;28;20475;-71
2023/08/22 13:44:57;;;;;;;7.55;3.33;;;;;;;28.52;56.52;102036.50;10454726;28;20068;-71
2023/08/22 13:49:57;;;;;;;5.45;2.97;;;;;;;27.95;59.23;102040.81;10454490;28;20460;-71
2023/08/22 13:54:58;;;;;;;2.80;2.30;;;;;;;28.36;59.07;102032.16;10453727;28;20040;-71
2023/08/22 13:59:59;;;;;;;7.13;3.38;;;;;;;28.88;56.50;102027.03;10452756;28;20025;-71
2023/08/22 14:05:00;;;;;;;9.48;2.83;;;;;;;29.21;56.91;102030.88;10454126;28;20036;-71
2023/08/22 14:10:06;;;;;;;6.00;2.63;;;;;;;29.06;58.08;102026.28;10452743;28;20188;-71
2023/08/22 14:15:08;;;;;;;2.67;2.10;;;;;;;29.13;57.66;102034.28;10435832;28;20392;-71
2023/08/22 14:20:09;;;;;;;3.90;1.95;;;;;;;28.01;58.42;102022.09;10453670;28;20465;-71
2023/08/22 14:25:16;;;;;;;3.17;1.95;;;;;;;27.56;59.41;102019.25;10451792;28;20118;-71
2023/08/22 14:30:17;;;;;;;4.88;2.67;;;;;;;26.78;61.27;102016.13;10452169;28;20025;-71
2023/08/22 14:35:17;;;;;;;2.17;1.98;;;;;;;26.13;62.62;102013.00;10435143;28;20067;-71
2023/08/22 14:40:21;;;;;;;3.42;2.20;;;;;;;26.20;63.85;102008.88;10452648;28;20036;-71
2023/08/22 14:45:21;;;;;;;7.47;2.92;;;;;;;26.33;64.39;102012.22;10435060;28;20025;-71
2023/08/22 14:50:22;;;;;;;3.90;1.88;;;;;;;26.43;64.55;102012.22;10453136;28;20033;-71
2023/08/22 14:55:23;;;;;;;5.00;2.55;;;;;;;26.52;64.35;102010.59;10451669;28;20037;-71
2023/08/22 15:00:27;;;;;;;1.67;1.58;;;;;;;26.57;64.29;102013.34;10418306;28;20029;-71
2023/08/22 15:05:38;;;;;;;3.17;2.58;;;;;;;25.89;65.49;102021.84;10450762;28;20029;-71
2023/08/22 15:10:42;;;;;;;3.20;2.15;;;;;;;25.65;64.79;102012.31;10433071;28;20045;-70
2023/08/22 15:15:55;;;;;;;1.83;1.73;;;;;;;25.68;64.73;102011.75;10450203;28;20029;-71
2023/08/22 15:21:02;;;;;;;1.73;1.58;;;;;;;25.48;65.30;102009.75;10452127;28;20358;-71
2023/08/22 15:26:02;;;;;;;5.82;1.98;;;;;;;25.14;65.23;102012.06;10442677;28;20037;-71
2023/08/22 15:31:20;;;;;;;3.75;1.90;;;;;;;24.72;66.63;102012.88;10458679;28;20075;-71
2023/08/22 15:36:26;;;;;;;2.53;1.40;;;;;;;24.33;68.13;102005.59;10457597;28;20036;-71
2023/08/22 15:41:34;;;;;;;5.60;1.48;;;;;;;24.15;69.17;102008.75;10459125;28;20389;-70
2023/08/22 15:46:34;;;;;;;1.38;1.38;;;;;;;24.16;69.36;102013.19;10457791;28;20033;-71
2023/08/22 15:51:38;;;;;;;2.83;2.47;;;;;;;24.01;69.64;102013.03;10458595;28;20033;-70
2023/08/22 15:56:42;;;;;;;1.42;1.33;;;;;;;23.99;69.61;102024.34;10424774;28;20037;-70
2023/08/22 16:01:43;;;;;;;4.55;1.75;;;;;;;23.73;70.71;102008.56;10458250;28;20029;-71
2023/08/22 16:06:47;;;;;;;0.88;0.88;;;;;;;23.47;71.26;102002.72;10457343;28;20124;-71
2023/08/22 16:11:50;;;;;;;1.30;0.90;;;;;;;23.06;73.62;102004.91;10457369;28;20064;-70
2023/08/22 16:17:00;;;;;;;1.50;1.40;;;;;;;22.85;74.00;102006.53;10473698;28;20319;-71
2023/08/22 16:22:08;;;;;;;0.93;0.93;;;;;;;22.48;75.52;102012.56;10457078;28;20029;-71
2023/08/22 16:27:11;;;;;;;0.80;0.80;;;;;;;22.33;76.18;102000.41;10455058;28;20045;-70
2023/08/22 16:32:15;;;;;;;0.98;0.98;;;;;;;22.21;77.00;101998.56;10455410;28;20094;-71
2023/08/22 16:37:19;;;;;;;1.33;1.23;;;;;;;22.16;77.26;101997.63;10439684;28;20037;-70
2023/08/22 16:42:20;;;;;;;2.03;0.68;;;;;;;22.12;77.10;101988.16;10456203;28;20037;-70
2023/08/22 16:47:30;;;;;;;1.10;1.00;;;;;;;22.10;79.22;101993.09;10455973;28;20041;-70
2023/08/22 16:52:32;;;;;;;2.78;1.77;;;;;;;21.99;78.98;101995.66;10455516;28;20052;-71
2023/08/22 16:57:33;;;;;;;1.23;1.20;;;;;;;21.92;77.74;101996.88;10457339;28;20538;-71
2023/08/22 17:02:40;;;;;;;0.98;0.82;;;;;;;21.80;78.88;101991.44;10454663;28;20032;-70
2023/08/22 17:07:44;;;;;;;;;;;;;;;21.65;81.64;102000.22;10455408;28;20025;-70
2023/08/22 17:12:48;;;;;;;1.42;1.33;;;;;;;21.60;80.66;101994.59;10453535;28;19996;-71
2023/08/22 17:17:49;;;;;;;2.20;1.70;;;;;;;21.56;81.37;101998.94;10454542;28;20037;-71
2023/08/22 17:22:50;;;;;;;1.77;1.02;;;;;;;21.50;79.75;101989.72;10455716;28;20389;-71
2023/08/22 17:27:57;;;;;;;1.60;1.40;;;;;;;21.23;84.46;101986.66;10453453;28;20474;-71
2023/08/22 17:33:01;;;;;;;1.70;1.60;;;;;;;21.10;85.23;101981.41;10454055;28;20419;-71
2023/08/22 17:38:02;;;;;;;1.13;1.02;;;;;;;21.02;83.16;101979.00;10453818;28;20362;-71
2023/08/22 17:43:08;;;;;;;10.73;2.08;;;;;;;21.01;83.87;101982.84;10453170;28;20037;-71
2023/08/22 17:48:17;;;;;;;1.35;1.23;;;;;;;20.97;83.34;101987.19;10453338;28;20036;-71
2023/08/22 17:53:22;;;;;;;3.67;2.03;;;;;;;20.84;81.84;101989.09;10452890;28;20040;-71
2023/08/22 17:58:26;;;;;;;5.45;2.40;;;;;;;20.68;84.95;101984.31;10437243;28;20473;-71
2023/08/22 18:03:30;;;;;;;1.17;1.17;;;;;;;20.54;84.91;101980.91;10454273;28;20037;-71
2023/08/22 18:08:41;;;;;;;;;;;;;;;;;;;;;
2023/08/22 18:14:03;;;;;;;8.07;1.92;;;;;;;20.22;86.25;101983.13;10452076;28;20028;-70
2023/08/22 18:19:09;;;;;;;3.08;1.55;;;;;;;20.09;90.05;101986.06;10452508;28;20061;-70
2023/08/22 18:24:10;;;;;;;4.90;1.88;;;;;;;20.02;89.42;101990.84;10453556;28;20377;-71
2023/08/22 18:29:15;;;;;;;3.63;2.03;;;;;;;19.96;89.06;101984.34;10453307;28;20041;-70
2023/08/22 18:34:39;;;;;;;2.67;2.00;;;;;;;19.87;88.78;101977.50;10453087;28;20388;-70
2023/08/22 18:39:42;;;;;;;9.27;3.00;;;;;;;19.72;90.00;101986.19;10449848;28;20048;-71
2023/08/22 18:44:47;;;;;;;3.67;2.25;;;;;;;19.53;88.37;101993.59;10451515;28;20048;-70
2023/08/22 18:49:51;;;;;;;3.03;2.35;;;;;;;19.42;89.24;102008.91;10451266;28;20492;-70
2023/08/22 18:54:52;;;;;;;4.13;2.08;;;;;;;19.34;90.19;102012.00;10451795;28;20037;-70
2023/08/22 18:59:53;;;;;;;4.07;1.83;;;;;;;19.26;90.64;102021.34;10451336;28;20044;-70
2023/08/22 19:04:53;;;;;;;2.50;1.50;;;;;;;19.16;89.72;102017.47;10450128;28;20040;-71
2023/08/22 19:10:10;;;;;;;3.50;2.38;;;;;;;19.05;89.74;102016.31;10451037;28;20084;-70
2023/08/22 19:15:12;;;;;;;2.67;2.47;;;;;;;18.92;88.78;102014.53;10450467;28;20071;-70
2023/08/22 19:20:12;;;;;;;6.13;3.13;;;;;;;18.78;89.31;102019.28;10451992;28;20188;-70
2023/08/22 19:25:14;;;;;;;4.03;2.72;;;;;;;18.73;90.05;102030.13;10451886;28;20021;-70
2023/08/22 19:30:25;;;;;;;2.53;2.33;;;;;;;18.63;90.14;102023.41;10451452;28;20048;-70
2023/08/22 19:35:39;;;;;;;7.13;2.50;;;;;;;18.55;90.62;102036.34;10451786;28;20526;-70
2023/08/22 19:40:46;;;;;;;3.40;3.10;;;;;;;18.42;90.21;102035.63;10450658;28;20082;-70
2023/08/22 19:45:47;;;;;;;4.03;3.17;;;;;;;18.26;89.72;102037.81;10449419;28;20064;-70
2023/08/22 19:50:48;;;;;;;5.45;2.63;;;;;;;18.14;90.43;102034.09;10451759;28;20033;-70
2023/08/22 19:55:51;;;;;;;3.78;3.17;;;;;;;18.08;90.67;102037.72;10450797;28;20497;-70
2023/08/22 20:00:58;;;;;;;3.08;2.47;;;;;;;17.96;90.63;102034.00;10449520;28;20481;-70
2023/08/22 20:05:59;;;;;;;;;;;;;;;17.79;90.44;102030.91;10451302;28;20122;-70
2023/08/22 20:11:04;;;;;;;6.38;2.92;;;;;;;17.76;90.64;102034.06;10438407;28;20292;-70
2023/08/22 20:16:04;;;;;;;3.20;3.00;;;;;;;17.75;91.23;102029.66;10458718;28;20037;-70
2023/08/22 20:21:15;;;;;;;4.03;2.63;;;;;;;17.69;91.44;102025.03;10457802;28;20485;-70
2023/08/22 20:26:18;;;;;;;2.33;2.22;;;;;;;17.55;91.53;102036.06;10457976;28;20029;-70
2023/08/22 20:31:22;;;;;;;4.38;2.53;;;;;;;17.48;91.72;102039.84;10440691;28;20370;-70
2023/08/22 20:36:22;;;;;;;3.38;3.08;;;;;;;17.38;91.85;102040.31;10440245;28;20472;-70
2023/08/22 20:41:23;;;;;;;4.72;3.22;;;;;;;17.25;92.22;102038.44;10439518;28;20048;-70
2023/08/22 20:46:24;;;;;;;4.85;3.60;;;;;;;17.25;93.61;102041.19;10456278;28;20491;-70
2023/08/22 20:51:27;;;;;;;3.15;2.92;;;;;;;17.26;94.56;102042.00;10456305;28;20409;-70
2023/08/22 20:56:47;;;;;;;9.13;3.50;;;;;;;17.18;94.62;102037.63;10456419;28;20044;-70
2023/08/22 21:01:48;;;;;;;6.85;3.65;;;;;;;17.14;94.88;102044.59;10440312;28;20056;-70
2023/08/22 21:06:52;;;;;;;4.88;2.85;;;;;;;17.07;94.87;102043.72;10457033;28;20276;-70
2023/08/22 21:12:02;;;;;;;8.27;2.90;;;;;;;16.99;94.99;102047.53;10454416;28;20060;-70
2023/08/22 21:17:08;;;;;;;6.70;3.38;;;;;;;16.92;95.52;102039.34;10456259;28;20045;-70
2023/08/22 21:22:09;;;;;;;3.57;3.27;;;;;;;16.88;95.76;102046.31;10454147;28;20108;-70
2023/08/22 21:27:31;;;;;;;9.63;3.25;;;;;;;16.87;96.67;102039.13;10454584;28;20025;-70
2023/08/22 21:32:53;;;;;;;5.15;3.53;;;;;;;16.93;96.68;102048.38;10456447;28;20037;-70
2023/08/22 21:38:01;;;;;;;2.80;2.60;;;;;;;16.96;96.99;102048.81;10454179;28;20550;-70
2023/08/22 21:43:26;;;;;;;2.42;2.22;;;;;;;16.98;98.27;102040.41;10454819;28;20025;-70
2023/08/22 21:48:26;;;;;;;3.75;3.30;;;;;;;16.97;97.59;102038.69;10454294;28;20069;-70
2023/08/22 21:53:35;;;;;;;4.57;2.55;;;;;;;16.95;97.86;102040.81;10452882;28;20033;-70
2023/08/22 21:58:52;;;;;;;8.23;2.88;;;;;;;16.85;98.37;102043.16;10453241;28;20029;-70
2023/08/22 22:03:53;;;;;;;3.55;3.25;;;;;;;16.73;99.92;102037.44;10454440;28;20060;-70
2023/08/22 22:08:56;;;;;;;3.97;3.63;;;;;;;16.69;100.00;102036.19;10454318;28;20472;-70
2023/08/22 22:14:09;;;;;;;3.67;3.05;;;;;;;16.63;100.00;102035.13;10454681;28;20037;-70
2023/08/22 22:19:10;;;;;;;4.65;3.63;;;;;;;16.58;100.00;102032.16;10454756;28;20115;-70
2023/08/22 22:24:22;;;;;;;3.90;3.15;;;;;;;16.54;100.00;102038.28;10452198;28;20056;-70
2023/08/22 22:29:24;;;;;;;6.18;3.35;;;;;;;16.51;100.00;102032.16;10437145;28;20033;-70
2023/08/22 22:40:47;;;;;;;4.07;3.67;;;;;;;16.49;100.00;102030.69;10324045;28;20496;-70
2023/08/22 22:45:51;;;;;;;7.15;3.05;;;;;;;16.40;100.00;102031.94;10359842;28;20504;-70
2023/08/22 22:50:54;;;;;;;4.15;3.53;;;;;;;16.39;100.00;102033.00;10434816;28;20033;-70
2023/08/22 22:57:18;;;;;;;4.20;3.20;;;;;;;16.35;100.00;102034.47;10452871;28;20439;-70
2023/08/22 23:07:38;;;;;;;8.07;4.20;;;;;;;16.29;100.00;102047.06;10451256;28;20029;-70
2023/08/22 23:12:39;;;;;;;5.25;3.63;;;;;;;16.30;100.00;102032.34;10451012;28;20107;-70
2023/08/22 23:17:45;;;;;;;4.55;3.92;;;;;;;16.31;100.00;102027.75;10452385;28;20029;-70